Data for 03/02/2010

Time Sea-Level Adjusted Pressure Absolute Pressure Temperature Relative Humidity Dew Point   
(mb) (inHg) (mb) (inHg) (C) (F) (%) (C) (F)
00:05 1019 30.09 848 25.04 0.6 33.1 48 -9.1 15.7
00:10 1019 30.09 848 25.04 0.6 33.1 47 -9.5 14.9
00:15 1019 30.09 848 25.04 0.6 33.2 48 -9.2 15.4
00:20 1019 30.09 848 25.04 0.2 32.4 50 -9.1 15.6
00:25 1019 30.09 848 25.04 0 32.1 48 -9.6 14.7
00:30 1018 30.06 848 25.04 0.9 33.6 47 -9.4 15.2
00:35 1018 30.06 848 25.04 0.6 33.2 48 -9.1 15.6
00:40 1018 30.06 848 25.04 0.3 32.6 49 -9.3 15.3
00:45 1018 30.06 848 25.04 0.4 32.7 48 -9.4 15.1
00:50 1018 30.06 848 25.04 0.2 32.4 48 -9.6 14.8
00:55 1018 30.06 848 25.04 0.3 32.5 47 -9.8 14.4
01:00 1018 30.06 847 25.01 0.2 32.4 48 -9.6 14.7
01:05 1018 30.06 847 25.01 0.2 32.3 47 -9.8 14.4
01:10 1018 30.06 847 25.01 0.4 32.7 47 -9.7 14.6
01:15 1018 30.06 847 25.01 0.2 32.4 48 -9.6 14.8
01:20 1018 30.06 847 25.01 -0 32 49 -9.4 15.1
01:25 1018 30.06 847 25.01 -0.4 31.3 50 -9.6 14.8
01:30 1018 30.06 847 25.01 -0.3 31.5 48 -10.1 13.9
01:35 1018 30.06 847 25.01 0.2 32.4 46 -10.1 13.8
01:40 1018 30.06 847 25.01 0.1 32.2 48 -9.7 14.6
01:45 1018 30.06 847 25.01 -0.3 31.5 48 -10 14
01:50 1018 30.06 847 25.01 0.3 32.5 46 -10.2 13.7
01:55 1018 30.06 847 25.01 0.7 33.2 45 -9.9 14.2
02:00 1018 30.06 847 25.01 0.2 32.4 46 -10 14.1
02:05 1018 30.06 847 25.01 0 32 46 -10.2 13.6
02:10 1018 30.06 847 25.01 -0.1 31.8 47 -10.1 13.8
02:15 1018 30.06 847 25.01 -0.1 31.8 46 -10.4 13.2
02:20 1018 30.06 847 25.01 0.2 32.4 45 -10.4 13.3
02:25 1018 30.06 847 25.01 0.2 32.3 45 -10.3 13.5
02:30 1018 30.06 847 25.01 0.3 32.6 44 -10.5 13
02:35 1018 30.06 847 25.01 0.4 32.7 45 -10.3 13.5
02:40 1018 30.06 847 25.01 0.4 32.6 44 -10.4 13.2
02:45 1018 30.06 847 25.01 0.4 32.8 43 -10.8 12.6
02:50 1018 30.06 847 25.01 0.3 32.6 43 -10.7 12.7
02:55 1018 30.06 847 25.01 0.2 32.4 43 -11 12.3
03:00 1018 30.06 847 25.01 0.4 32.7 41 -11.3 11.7
03:05 1018 30.06 847 25.01 0.6 33.1 41 -11.1 12
03:10 1017 30.03 847 25.01 0.4 32.8 43 -10.9 12.4
03:15 1017 30.03 847 25.01 0.3 32.5 44 -10.5 13.1
03:20 1017 30.03 847 25.01 -0.4 31.3 46 -10.6 12.9
03:25 1017 30.03 847 25.01 -0.6 31 46 -10.8 12.6
03:30 1017 30.03 847 25.01 -0.4 31.3 46 -10.7 12.7
03:35 1017 30.03 847 25.01 -0.3 31.4 46 -10.7 12.7
03:40 1017 30.03 847 25.01 -0.5 31.2 46 -10.8 12.6
03:45 1017 30.03 847 25.01 -0.9 30.4 48 -10.5 13.1
03:50 1017 30.03 847 25.01 -1.2 29.9 45 -11.6 11.1
03:55 1017 30.03 847 25.01 -1.2 29.9 45 -11.7 11
04:00 1017 30.03 847 25.01 -1.2 29.9 44 -12 10.3
04:05 1017 30.03 847 25.01 -0.6 30.9 43 -11.8 10.7
04:10 1017 30.03 847 25.01 -0.4 31.3 43 -11.6 11.2
04:15 1017 30.03 847 25.01 -0.8 30.5 43 -12 10.4
04:20 1017 30.03 847 25.01 -0.4 31.4 43 -11.5 11.3
04:25 1017 30.03 847 25.01 0.1 32.2 42 -11.3 11.7
04:30 1017 30.03 847 25.01 -0.5 31.1 44 -11.2 11.8
04:35 1017 30.03 847 25.01 -0.9 30.5 45 -11.4 11.6
04:40 1017 30.03 847 25.01 -0.8 30.5 47 -10.8 12.5
04:45 1017 30.03 847 25.01 -1.1 30 47 -11 12.1
04:50 1017 30.03 847 25.01 -0.7 30.7 45 -11.1 11.9
04:55 1017 30.03 847 25.01 -0.6 30.8 45 -11.2 11.8
05:00 1017 30.03 847 25.01 -0.8 30.6 45 -11.2 11.9
05:05 1017 30.03 847 25.01 -0.9 30.4 46 -11.1 12
05:10 1017 30.03 847 25.01 -1.2 29.9 48 -10.9 12.4
05:15 1017 30.03 847 25.01 -1.6 29.2 49 -11.1 12.1
05:20 1017 30.03 847 25.01 -1.8 28.8 49 -11.2 11.9
05:25 1017 30.03 847 25.01 -2.6 27.3 51 -11.4 11.5
05:30 1018 30.06 847 25.01 -3 26.5 50 -12.1 10.2
05:35 1017 30.03 847 25.01 -2.6 27.4 49 -11.8 10.7
05:40 1017 30.03 847 25.01 -2.8 26.9 50 -11.8 10.7
05:45 1017 30.03 847 25.01 -2.7 27.1 49 -11.9 10.5
05:50 1017 30.03 847 25.01 -2.7 27.1 49 -11.9 10.5
05:55 1017 30.03 847 25.01 -2.4 27.8 47 -12.1 10.1
06:00 1017 30.03 847 25.01 -1.5 29.3 45 -12.1 10.3
06:05 1017 30.03 847 25.01 -1 30.2 44 -11.8 10.7
06:10 1017 30.03 847 25.01 -1.3 29.7 45 -11.6 11.1
06:15 1017 30.03 847 25.01 -1.8 28.8 47 -11.6 11.1
06:20 1017 30.03 847 25.01 -2 28.4 48 -11.7 10.9
06:25 1017 30.03 847 25.01 -2 28.5 47 -11.8 10.8
06:30 1017 30.03 846 24.98 -2 28.4 48 -11.5 11.3
06:35 1017 30.03 846 24.98 -2.4 27.7 50 -11.4 11.4
06:40 1017 30.03 846 24.98 -2.6 27.3 50 -11.7 10.9
06:45 1017 30.03 846 24.98 -2.5 27.5 52 -11 12.3
06:50 1017 30.03 846 24.98 -2.6 27.4 51 -11.3 11.7
06:55 1017 30.03 846 24.98 -2.5 27.5 51 -11.3 11.7
07:00 1017 30.03 846 24.98 -2.3 27.9 50 -11.5 11.4
07:05 1017 30.03 846 24.98 -2.1 28.2 49 -11.4 11.4
07:10 1017 30.03 846 24.98 -2.2 28 49 -11.6 11
07:15 1017 30.03 846 24.98 -2.5 27.6 49 -11.7 10.9
07:20 1017 30.03 846 24.98 -2.1 28.1 48 -11.7 11
07:25 1017 30.03 846 24.98 -1.7 28.9 48 -11.3 11.6
07:30 1017 30.03 846 24.98 -1.9 28.6 49 -11.2 11.8
07:35 1017 30.03 846 24.98 -2 28.5 49 -11.4 11.5
07:40 1017 30.03 846 24.98 -1.6 29 48 -11.2 11.8
07:45 1017 30.03 846 24.98 -1.4 29.5 47 -11.3 11.6
07:50 1017 30.03 846 24.98 -1.1 30.1 45 -11.4 11.4
07:55 1017 30.03 846 24.98 -0.9 30.4 46 -11.1 12.1
08:00 1017 30.03 846 24.98 -1.2 29.9 48 -10.8 12.5
08:05 1017 30.03 846 24.98 -1 30.2 46 -11.2 11.8
08:10 1017 30.03 846 24.98 -0.4 31.3 43 -11.4 11.4
08:15 1017 30.03 846 24.98 0.2 32.3 43 -10.8 12.5
08:20 1017 30.03 846 24.98 0.1 32.1 45 -10.5 13.1
08:25 1017 30.03 846 24.98 -0.1 31.9 45 -10.6 12.9
08:30 1017 30.03 846 24.98 0.2 32.4 43 -11 12.2
08:35 1017 30.03 846 24.98 0.4 32.7 40 -11.7 11
08:40 1016 30 846 24.98 0.7 33.3 41 -11.2 11.8
08:45 1016 30 846 24.98 0.9 33.6 40 -11.2 11.8
08:50 1016 30 845 24.95 0.8 33.5 43 -10.4 13.2
08:55 1016 30 845 24.95 0.9 33.6 43 -10.2 13.7
09:00 1016 30 845 24.95 1 33.9 43 -10.1 13.9
09:05 1016 30 845 24.95 1.6 34.9 42 -9.8 14.3
09:10 1016 30 845 24.95 2.4 36.4 41 -9.4 15.1
09:15 1016 30 845 24.95 3 37.4 40 -9.4 15.1
09:20 1016 30 845 24.95 3.5 38.3 38 -9.4 15
09:25 1016 30 845 24.95 4.1 39.4 37 -9.4 15.1
09:30 1016 30 845 24.95 4.4 39.9 36 -9.3 15.3
09:35 1016 30 845 24.95 4.4 39.9 39 -8.4 16.8
09:40 1016 30 845 24.95 4.6 40.3 38 -8.5 16.8
09:45 1016 30 845 24.95 4.5 40.1 39 -8.1 17.4
09:50 1016 30 845 24.95 3.2 37.7 43 -8.3 17
09:55 1016 30 845 24.95 2.9 37.2 43 -8.5 16.7
10:00 1016 30 845 24.95 2.9 37.2 44 -8.2 17.3
10:05 1016 30 845 24.95 2.9 37.2 44 -8.3 17.1
10:10 1016 30 845 24.95 3.1 37.6 46 -7.5 18.4
10:15 1016 30 845 24.95 3.1 37.7 47 -7 19.4
10:20 1016 30 845 24.95 3 37.5 48 -6.9 19.5
10:25 1016 30 845 24.95 3.4 38.1 42 -8.3 17.1
10:30 1016 30 845 24.95 2.4 36.4 47 -7.7 18.1
10:35 1016 30 845 24.95 2.1 35.8 45 -8.7 16.4
10:40 1016 30 845 24.95 2.8 37 43 -8.6 16.5
10:45 1016 30 845 24.95 3.2 37.8 41 -8.7 16.3
10:50 1016 30 845 24.95 3.2 37.8 43 -8.3 17.1
10:55 1016 30 845 24.95 3.7 38.6 41 -8.4 16.9
11:00 1016 30 845 24.95 3.9 38.9 40 -8.6 16.6
11:05 1016 30 845 24.95 3.9 39 39 -8.8 16.2
11:10 1016 30 845 24.95 4.6 40.3 34 -9.9 14.1
11:15 1016 30 845 24.95 4.1 39.3 38 -9 15.8
11:20 1016 30 845 24.95 3.7 38.6 38 -9.4 15.2
11:25 1016 30 845 24.95 4 39.3 39 -8.7 16.4
11:30 1016 30 845 24.95 4.8 40.6 34 -9.8 14.4
11:35 1016 30 845 24.95 5.5 41.9 34 -9.3 15.3
11:40 1016 30 845 24.95 6 42.8 32 -9.3 15.2
11:45 1016 30 845 24.95 6 42.8 33 -8.9 15.9
11:50 1016 30 845 24.95 6.7 44.1 32 -8.9 15.9
11:55 1016 30 845 24.95 7.1 44.7 30 -9.5 14.9
12:00 1016 30 845 24.95 7 44.7 30 -9.3 15.3
12:05 1016 30 845 24.95 5.7 42.3 33 -9.3 15.2
12:10 1016 30 845 24.95 5.2 41.4 34 -9.5 15
12:15 1016 30 845 24.95 6.4 43.5 31 -9.6 14.7
12:20 1016 30 845 24.95 6.2 43.2 36 -7.7 18.1
12:25 1016 30 845 24.95 5.8 42.4 36 -8.2 17.2
12:30 1016 30 845 24.95 5.7 42.3 36 -8.4 16.9
12:35 1016 30 845 24.95 5.2 41.4 38 -8 17.6
12:40 1016 30 845 24.95 4.5 40 38 -8.6 16.6
12:45 1015 29.97 845 24.95 4.5 40 40 -8.1 17.4
12:50 1015 29.97 845 24.95 5.4 41.6 35 -8.8 16.1
12:55 1015 29.97 845 24.95 6 42.8 33 -9 15.9
13:00 1015 29.97 845 24.95 5.6 42.1 38 -7.7 18.1
13:05 1015 29.97 845 24.95 5 41.1 40 -7.5 18.5
13:10 1015 29.97 845 24.95 5.5 41.9 37 -8.1 17.3
13:15 1015 29.97 844 24.92 5.2 41.3 36 -8.6 16.5
13:20 1015 29.97 844 24.92 5.1 41.2 37 -8.3 17
13:25 1015 29.97 844 24.92 5.5 41.9 34 -9 15.7
13:30 1015 29.97 844 24.92 5.8 42.5 36 -8.2 17.3
13:35 1015 29.97 844 24.92 5.7 42.2 32 -9.7 14.6
13:40 1015 29.97 844 24.92 6.4 43.6 33 -8.8 16.2
13:45 1015 29.97 844 24.92 5.9 42.6 34 -8.9 16
13:50 1015 29.97 844 24.92 5.2 41.3 35 -9.1 15.7
13:55 1015 29.97 844 24.92 5.2 41.3 35 -9 15.8
14:00 1015 29.97 844 24.92 5.4 41.8 36 -8.7 16.4
14:05 1015 29.97 844 24.92 6.1 43 33 -9 15.9
14:10 1015 29.97 844 24.92 6.6 43.9 31 -9.2 15.4
14:15 1015 29.97 844 24.92 6.5 43.6 32 -9 15.7
14:20 1015 29.97 844 24.92 6.6 43.9 32 -9 15.9
14:25 1015 29.97 844 24.92 6.1 43.1 32 -9.4 15.1
14:30 1014 29.94 844 24.92 6.3 43.4 32 -9.3 15.3
14:35 1014 29.94 844 24.92 6.3 43.3 33 -8.8 16.1
14:40 1014 29.94 844 24.92 6 42.8 33 -9.1 15.6
14:45 1014 29.94 844 24.92 6.5 43.6 31 -9.5 14.9
14:50 1014 29.94 843 24.89 6.6 43.9 31 -9.3 15.3
14:55 1014 29.94 843 24.89 7.2 45 31 -9 15.8
15:00 1014 29.94 843 24.89 7.2 44.9 30 -9.1 15.5
15:05 1014 29.94 843 24.89 7.5 45.6 30 -8.8 16.2
15:10 1014 29.94 843 24.89 7.6 45.7 30 -8.8 16.2
15:15 1014 29.94 843 24.89 7.7 45.8 32 -8 17.7
15:20 1014 29.94 843 24.89 7.7 45.9 33 -7.6 18.3
15:25 1014 29.94 843 24.89 7.2 44.9 33 -8.2 17.3
15:30 1014 29.94 843 24.89 7.2 44.9 32 -8.3 17
15:35 1014 29.94 843 24.89 6.7 44 33 -8.4 16.8
15:40 1014 29.94 843 24.89 7 44.6 34 -7.9 17.8
15:45 1014 29.94 843 24.89 7.2 44.9 33 -8.2 17.3
15:50 1014 29.94 843 24.89 7 44.6 33 -8.1 17.5
15:55 1014 29.94 843 24.89 7 44.7 34 -7.8 18
16:00 1014 29.94 843 24.89 6.9 44.3 36 -7.1 19.2
16:05 1014 29.94 843 24.89 6.5 43.8 36 -7.3 18.8
16:10 1014 29.94 843 24.89 6.6 43.9 33 -8.5 16.7
16:15 1014 29.94 843 24.89 6.9 44.4 32 -8.7 16.3
16:20 1014 29.94 843 24.89 6.9 44.5 32 -8.5 16.8
16:25 1014 29.94 843 24.89 6.9 44.3 31 -9.1 15.6
16:30 1013 29.91 843 24.89 7.1 44.7 31 -8.9 16
16:35 1013 29.91 843 24.89 7.2 44.9 33 -8.2 17.2
16:40 1013 29.91 843 24.89 6.7 44 33 -8.3 17
16:45 1013 29.91 843 24.89 6.5 43.6 33 -8.5 16.6
16:50 1013 29.91 843 24.89 6.4 43.6 33 -8.5 16.6
16:55 1013 29.91 843 24.89 6.4 43.5 35 -8 17.5
17:00 1013 29.91 843 24.89 6.4 43.6 37 -7.3 18.9
17:05 1013 29.91 843 24.89 5.9 42.6 38 -7.5 18.5
17:10 1013 29.91 843 24.89 6 42.8 34 -8.8 16.2
17:15 1013 29.91 843 24.89 6.1 43 35 -8.4 16.9
17:20 1013 29.91 842 24.86 6.2 43.1 35 -8.3 17.1
17:25 1013 29.91 842 24.86 6 42.9 33 -9.2 15.5
17:30 1013 29.91 843 24.89 6 42.7 37 -7.7 18.2
17:35 1013 29.91 842 24.86 6.2 43.2 36 -7.6 18.2
17:40 1013 29.91 842 24.86 6.2 43.2 38 -7 19.4
17:45 1013 29.91 842 24.86 6 42.8 40 -6.7 19.9
17:50 1013 29.91 842 24.86 5.9 42.7 37 -7.5 18.4
17:55 1013 29.91 842 24.86 5.9 42.6 40 -6.7 19.9
18:00 1013 29.91 842 24.86 5.6 42.1 42 -6.4 20.5
18:05 1013 29.91 842 24.86 4.9 40.9 44 -6.3 20.7
18:10 1013 29.91 842 24.86 4.7 40.5 43 -6.8 19.7
18:15 1013 29.91 842 24.86 4.7 40.4 42 -7.3 18.9
18:20 1013 29.91 842 24.86 4.5 40 40 -8.1 17.4
18:25 1013 29.91 842 24.86 4.7 40.4 36 -9.2 15.4
18:30 1013 29.91 842 24.86 4.9 40.8 39 -8 17.6
18:35 1013 29.91 842 24.86 4.7 40.5 44 -6.6 20.2
18:40 1013 29.91 842 24.86 4.7 40.4 43 -6.9 19.5
18:45 1013 29.91 842 24.86 4.3 39.8 48 -5.8 21.5
18:50 1013 29.91 842 24.86 4.6 40.2 33 -10.5 13.1
18:55 1013 29.91 842 24.86 5.3 41.5 41 -6.8 19.7
19:00 1013 29.91 842 24.86 4.8 40.6 47 -5.5 22
19:05 1013 29.91 842 24.86 4.4 39.9 47 -5.9 21.4
19:10 1013 29.91 842 24.86 4 39.2 50 -5.6 21.9
19:15 1013 29.91 842 24.86 3.8 38.9 49 -5.9 21.3
19:20 1013 29.91 842 24.86 3.7 38.6 52 -5.2 22.7
19:25 1013 29.91 842 24.86 3.5 38.3 46 -7.1 19.1
19:30 1013 29.91 842 24.86 4.5 40.1 40 -8.1 17.5
19:35 1013 29.91 842 24.86 4.8 40.7 45 -6 21.2
19:40 1013 29.91 842 24.86 4.5 40 46 -6.1 20.9
19:45 1013 29.91 842 24.86 4 39.2 48 -6.1 21
19:50 1013 29.91 842 24.86 4 39.2 48 -6 21.2
19:55 1013 29.91 842 24.86 3.7 38.7 47 -6.5 20.3
20:00 1013 29.91 842 24.86 3.8 38.8 46 -6.8 19.8
20:05 1013 29.91 842 24.86 3.9 39 46 -6.6 20.1
20:10 1013 29.91 842 24.86 3.9 39 47 -6.5 20.2
20:15 1013 29.91 842 24.86 3.7 38.6 48 -6.3 20.7
20:20 1013 29.91 842 24.86 3.6 38.4 48 -6.6 20.2
20:25 1013 29.91 842 24.86 3.6 38.5 48 -6.5 20.3
20:30 1013 29.91 842 24.86 3.5 38.3 49 -6.2 20.8
20:35 1013 29.91 842 24.86 3.4 38.1 47 -6.8 19.8
20:40 1013 29.91 842 24.86 3.9 39.1 43 -7.6 18.3
20:45 1013 29.91 842 24.86 3.9 39 46 -6.7 20
20:50 1013 29.91 842 24.86 3.8 38.9 45 -7.1 19.3
20:55 1013 29.91 842 24.86 3.9 38.9 47 -6.5 20.3
21:00 1013 29.91 842 24.86 3.5 38.3 48 -6.5 20.2
21:05 1013 29.91 842 24.86 3.3 38 50 -6.3 20.7
21:10 1013 29.91 842 24.86 3.4 38.1 48 -6.5 20.3
21:15 1013 29.91 842 24.86 3.4 38.2 48 -6.4 20.4
21:20 1013 29.91 842 24.86 3.4 38.2 48 -6.4 20.4
21:25 1013 29.91 842 24.86 3.5 38.3 48 -6.4 20.6
21:30 1013 29.91 842 24.86 3.5 38.4 49 -6.2 20.9
21:35 1013 29.91 842 24.86 3.3 38 49 -6.3 20.6
21:40 1013 29.91 842 24.86 3.3 38 48 -6.6 20.1
21:45 1013 29.91 842 24.86 3.4 38.2 48 -6.5 20.3
21:50 1013 29.91 842 24.86 3.6 38.4 48 -6.4 20.4
21:55 1013 29.91 842 24.86 3.7 38.7 46 -7 19.4
22:00 1013 29.91 842 24.86 4.1 39.4 45 -6.8 19.7
22:05 1013 29.91 842 24.86 4.2 39.6 45 -6.7 20
22:10 1013 29.91 842 24.86 4.1 39.4 45 -6.7 19.9
22:15 1013 29.91 842 24.86 4.3 39.7 43 -7.3 18.9
22:20 1013 29.91 842 24.86 4.4 40 44 -6.8 19.7
22:25 1013 29.91 842 24.86 4.3 39.7 45 -6.7 19.9
22:30 1013 29.91 842 24.86 4.3 39.7 46 -6.4 20.5
22:35 1013 29.91 842 24.86 4 39.2 46 -6.7 19.9
22:40 1013 29.91 842 24.86 4.2 39.5 45 -6.6 20.1
22:45 1013 29.91 842 24.86 4 39.2 46 -6.6 20.1
22:50 1013 29.91 842 24.86 4 39.2 45 -6.8 19.8
22:55 1013 29.91 842 24.86 4.1 39.3 45 -6.8 19.8
23:00 1013 29.91 842 24.86 4.2 39.5 46 -6.4 20.5
23:05 1013 29.91 842 24.86 3.7 38.7 48 -6.2 20.9
23:10 1013 29.91 842 24.86 3.4 38.1 49 -6.3 20.6
23:15 1013 29.91 842 24.86 3.4 38.2 48 -6.6 20.1
23:20 1013 29.91 842 24.86 3.7 38.7 47 -6.7 20
23:25 1013 29.91 842 24.86 3.8 38.9 45 -7 19.3
23:30 1013 29.91 842 24.86 4.1 39.4 44 -7 19.4
23:35 1013 29.91 842 24.86 4.1 39.3 44 -7 19.4
23:40 1013 29.91 842 24.86 3.9 39.1 46 -6.7 19.9
23:45 1013 29.91 842 24.86 3.9 39.1 46 -6.8 19.8
23:50 1013 29.91 842 24.86 4 39.2 45 -6.9 19.6
23:55 1013 29.91 842 24.86 4 39.2 46 -6.6 20.2
24:00 1013 29.91 842 24.86 3.8 38.8 46 -6.7 19.9